sensor_id;sensor_type;location;lat;lon;timestamp;P1;durP1;ratioP1;P2;durP2;ratioP2
9964;SDS011;5023;53.554;9.964;2023-02-01T00:02:15;17.40;;;4.40;;
9964;SDS011;5023;53.554;9.964;2023-02-01T00:07:18;17.47;;;4.00;;
9964;SDS011;5023;53.554;9.964;2023-02-01T00:12:20;16.47;;;4.23;;
9964;SDS011;5023;53.554;9.964;2023-02-01T00:17:23;19.63;;;4.27;;
9964;SDS011;5023;53.554;9.964;2023-02-01T00:22:27;19.07;;;4.53;;
9964;SDS011;5023;53.554;9.964;2023-02-01T00:27:29;17.07;;;4.40;;
9964;SDS011;5023;53.554;9.964;2023-02-01T00:32:31;15.57;;;4.63;;
9964;SDS011;5023;53.554;9.964;2023-02-01T00:37:34;18.43;;;4.60;;
9964;SDS011;5023;53.554;9.964;2023-02-01T00:42:36;22.30;;;4.20;;
9964;SDS011;5023;53.554;9.964;2023-02-01T00:47:38;24.00;;;4.63;;
9964;SDS011;5023;53.554;9.964;2023-02-01T00:52:41;19.40;;;4.30;;
9964;SDS011;5023;53.554;9.964;2023-02-01T00:57:43;21.97;;;4.07;;
9964;SDS011;5023;53.554;9.964;2023-02-01T01:02:45;18.03;;;4.73;;
9964;SDS011;5023;53.554;9.964;2023-02-01T01:07:49;31.50;;;5.47;;
9964;SDS011;5023;53.554;9.964;2023-02-01T01:12:51;24.37;;;5.57;;
9964;SDS011;5023;53.554;9.964;2023-02-01T01:17:53;23.73;;;5.30;;
9964;SDS011;5023;53.554;9.964;2023-02-01T01:22:56;18.33;;;5.07;;
9964;SDS011;5023;53.554;9.964;2023-02-01T01:27:59;24.17;;;5.30;;
9964;SDS011;5023;53.554;9.964;2023-02-01T01:33:01;22.93;;;4.90;;
9964;SDS011;5023;53.554;9.964;2023-02-01T01:38:06;25.27;;;5.43;;
9964;SDS011;5023;53.554;9.964;2023-02-01T01:43:12;24.57;;;6.03;;
9964;SDS011;5023;53.554;9.964;2023-02-01T01:48:16;23.77;;;5.17;;
9964;SDS011;5023;53.554;9.964;2023-02-01T01:53:24;20.93;;;5.40;;
9964;SDS011;5023;53.554;9.964;2023-02-01T01:58:32;24.60;;;5.40;;
9964;SDS011;5023;53.554;9.964;2023-02-01T02:03:36;24.93;;;5.50;;
9964;SDS011;5023;53.554;9.964;2023-02-01T02:08:42;25.97;;;4.90;;
9964;SDS011;5023;53.554;9.964;2023-02-01T02:13:45;24.07;;;5.27;;
9964;SDS011;5023;53.554;9.964;2023-02-01T02:18:53;23.80;;;5.47;;
9964;SDS011;5023;53.554;9.964;2023-02-01T02:24:12;24.30;;;5.50;;
9964;SDS011;5023;53.554;9.964;2023-02-01T02:34:59;24.23;;;5.37;;
9964;SDS011;5023;53.554;9.964;2023-02-01T02:40:07;32.00;;;6.13;;
9964;SDS011;5023;53.554;9.964;2023-02-01T02:45:17;27.60;;;5.90;;
9964;SDS011;5023;53.554;9.964;2023-02-01T02:50:43;28.17;;;5.90;;
9964;SDS011;5023;53.554;9.964;2023-02-01T02:56:07;22.73;;;5.50;;
9964;SDS011;5023;53.554;9.964;2023-02-01T03:01:30;25.50;;;5.53;;
9964;SDS011;5023;53.554;9.964;2023-02-01T03:06:57;19.50;;;5.23;;
9964;SDS011;5023;53.554;9.964;2023-02-01T03:12:12;23.83;;;5.30;;
9964;SDS011;5023;53.554;9.964;2023-02-01T03:17:35;29.53;;;5.27;;
9964;SDS011;5023;53.554;9.964;2023-02-01T03:22:45;18.77;;;4.63;;
9964;SDS011;5023;53.554;9.964;2023-02-01T03:27:52;24.70;;;5.27;;
9964;SDS011;5023;53.554;9.964;2023-02-01T03:32:59;14.83;;;4.47;;
9964;SDS011;5023;53.554;9.964;2023-02-01T03:38:18;15.97;;;3.60;;
9964;SDS011;5023;53.554;9.964;2023-02-01T03:43:34;11.33;;;2.90;;
9964;SDS011;5023;53.554;9.964;2023-02-01T03:48:43;12.70;;;2.93;;
9964;SDS011;5023;53.554;9.964;2023-02-01T03:53:47;10.60;;;2.80;;
9964;SDS011;5023;53.554;9.964;2023-02-01T03:58:51;10.37;;;3.13;;
9964;SDS011;5023;53.554;9.964;2023-02-01T04:04:00;15.30;;;3.23;;
9964;SDS011;5023;53.554;9.964;2023-02-01T04:09:04;10.27;;;3.50;;
9964;SDS011;5023;53.554;9.964;2023-02-01T04:14:07;13.97;;;3.37;;
9964;SDS011;5023;53.554;9.964;2023-02-01T04:19:09;12.20;;;3.20;;
9964;SDS011;5023;53.554;9.964;2023-02-01T04:24:12;12.17;;;3.50;;
9964;SDS011;5023;53.554;9.964;2023-02-01T04:29:14;13.77;;;3.30;;
9964;SDS011;5023;53.554;9.964;2023-02-01T04:34:16;9.37;;;3.10;;
9964;SDS011;5023;53.554;9.964;2023-02-01T04:39:20;12.37;;;2.93;;
9964;SDS011;5023;53.554;9.964;2023-02-01T04:44:36;9.27;;;2.90;;
9964;SDS011;5023;53.554;9.964;2023-02-01T04:49:42;9.80;;;2.70;;
9964;SDS011;5023;53.554;9.964;2023-02-01T04:54:45;8.87;;;2.70;;
9964;SDS011;5023;53.554;9.964;2023-02-01T04:59:47;9.27;;;2.50;;
9964;SDS011;5023;53.554;9.964;2023-02-01T05:04:50;8.13;;;3.37;;
9964;SDS011;5023;53.554;9.964;2023-02-01T05:09:54;5.93;;;2.20;;
9964;SDS011;5023;53.554;9.964;2023-02-01T05:14:56;3.93;;;1.40;;
9964;SDS011;5023;53.554;9.964;2023-02-01T05:19:58;4.97;;;1.63;;
9964;SDS011;5023;53.554;9.964;2023-02-01T05:25:01;1.57;;;0.93;;
9964;SDS011;5023;53.554;9.964;2023-02-01T05:30:04;3.17;;;1.47;;
9964;SDS011;5023;53.554;9.964;2023-02-01T05:35:08;1.10;;;0.60;;
9964;SDS011;5023;53.554;9.964;2023-02-01T05:40:12;1.23;;;1.00;;
9964;SDS011;5023;53.554;9.964;2023-02-01T05:45:14;2.97;;;1.00;;
9964;SDS011;5023;53.554;9.964;2023-02-01T05:50:16;0.80;;;0.80;;
9964;SDS011;5023;53.554;9.964;2023-02-01T05:55:22;1.23;;;1.00;;
9964;SDS011;5023;53.554;9.964;2023-02-01T06:00:24;1.60;;;0.87;;
9964;SDS011;5023;53.554;9.964;2023-02-01T06:05:31;1.00;;;0.80;;
9964;SDS011;5023;53.554;9.964;2023-02-01T06:10:36;1.50;;;1.03;;
9964;SDS011;5023;53.554;9.964;2023-02-01T06:15:38;2.43;;;1.07;;
9964;SDS011;5023;53.554;9.964;2023-02-01T06:20:42;3.23;;;1.17;;
9964;SDS011;5023;53.554;9.964;2023-02-01T06:25:45;2.53;;;1.37;;
9964;SDS011;5023;53.554;9.964;2023-02-01T06:30:47;4.40;;;1.47;;
9964;SDS011;5023;53.554;9.964;2023-02-01T06:35:56;4.10;;;1.50;;
9964;SDS011;5023;53.554;9.964;2023-02-01T06:41:00;4.47;;;1.53;;
9964;SDS011;5023;53.554;9.964;2023-02-01T06:46:05;4.57;;;1.93;;
9964;SDS011;5023;53.554;9.964;2023-02-01T06:51:17;8.67;;;2.20;;
9964;SDS011;5023;53.554;9.964;2023-02-01T06:56:25;9.23;;;2.10;;
9964;SDS011;5023;53.554;9.964;2023-02-01T07:01:28;10.33;;;2.63;;
9964;SDS011;5023;53.554;9.964;2023-02-01T07:06:30;11.30;;;3.27;;
9964;SDS011;5023;53.554;9.964;2023-02-01T07:11:34;9.80;;;2.37;;
9964;SDS011;5023;53.554;9.964;2023-02-01T07:16:37;12.20;;;3.33;;
9964;SDS011;5023;53.554;9.964;2023-02-01T07:21:40;13.37;;;3.50;;
9964;SDS011;5023;53.554;9.964;2023-02-01T07:26:44;15.37;;;3.90;;
9964;SDS011;5023;53.554;9.964;2023-02-01T07:31:48;19.27;;;4.60;;
9964;SDS011;5023;53.554;9.964;2023-02-01T07:36:51;19.43;;;4.00;;
9964;SDS011;5023;53.554;9.964;2023-02-01T07:41:54;17.60;;;4.30;;
9964;SDS011;5023;53.554;9.964;2023-02-01T07:46:57;21.70;;;4.80;;
9964;SDS011;5023;53.554;9.964;2023-02-01T07:52:00;20.53;;;5.77;;
9964;SDS011;5023;53.554;9.964;2023-02-01T07:57:04;24.03;;;5.43;;
9964;SDS011;5023;53.554;9.964;2023-02-01T08:02:07;22.83;;;5.03;;
9964;SDS011;5023;53.554;9.964;2023-02-01T08:07:10;21.57;;;4.80;;
9964;SDS011;5023;53.554;9.964;2023-02-01T08:12:13;22.67;;;4.60;;
9964;SDS011;5023;53.554;9.964;2023-02-01T08:17:15;21.30;;;4.27;;
9964;SDS011;5023;53.554;9.964;2023-02-01T08:22:17;24.90;;;5.13;;
9964;SDS011;5023;53.554;9.964;2023-02-01T08:27:21;26.30;;;4.87;;
9964;SDS011;5023;53.554;9.964;2023-02-01T08:32:23;24.90;;;5.97;;
9964;SDS011;5023;53.554;9.964;2023-02-01T08:37:25;22.97;;;6.00;;
9964;SDS011;5023;53.554;9.964;2023-02-01T08:42:29;15.67;;;4.43;;
9964;SDS011;5023;53.554;9.964;2023-02-01T08:47:49;12.73;;;4.00;;
9964;SDS011;5023;53.554;9.964;2023-02-01T08:52:52;16.53;;;4.60;;
9964;SDS011;5023;53.554;9.964;2023-02-01T08:57:57;17.33;;;4.50;;
9964;SDS011;5023;53.554;9.964;2023-02-01T09:02:59;24.23;;;8.57;;
9964;SDS011;5023;53.554;9.964;2023-02-01T09:08:01;22.37;;;4.50;;
9964;SDS011;5023;53.554;9.964;2023-02-01T09:13:04;18.37;;;5.70;;
9964;SDS011;5023;53.554;9.964;2023-02-01T09:18:08;23.37;;;5.40;;
9964;SDS011;5023;53.554;9.964;2023-02-01T09:23:10;16.07;;;4.40;;
9964;SDS011;5023;53.554;9.964;2023-02-01T09:28:14;16.57;;;5.03;;
9964;SDS011;5023;53.554;9.964;2023-02-01T09:33:16;25.30;;;4.90;;
9964;SDS011;5023;53.554;9.964;2023-02-01T09:38:18;16.40;;;4.63;;
9964;SDS011;5023;53.554;9.964;2023-02-01T09:43:24;18.27;;;4.53;;
9964;SDS011;5023;53.554;9.964;2023-02-01T09:48:39;14.10;;;3.80;;
9964;SDS011;5023;53.554;9.964;2023-02-01T09:53:46;17.30;;;4.63;;
9964;SDS011;5023;53.554;9.964;2023-02-01T09:59:01;21.60;;;4.30;;
9964;SDS011;5023;53.554;9.964;2023-02-01T10:04:12;19.87;;;4.83;;
9964;SDS011;5023;53.554;9.964;2023-02-01T10:09:22;20.40;;;4.50;;
9964;SDS011;5023;53.554;9.964;2023-02-01T10:14:40;13.77;;;3.93;;
9964;SDS011;5023;53.554;9.964;2023-02-01T10:19:52;16.90;;;4.27;;
9964;SDS011;5023;53.554;9.964;2023-02-01T10:25:03;16.57;;;3.77;;
9964;SDS011;5023;53.554;9.964;2023-02-01T10:35:24;13.83;;;3.90;;
9964;SDS011;5023;53.554;9.964;2023-02-01T10:40:30;18.63;;;4.33;;
9964;SDS011;5023;53.554;9.964;2023-02-01T10:45:34;19.77;;;3.83;;
9964;SDS011;5023;53.554;9.964;2023-02-01T10:50:41;14.73;;;3.90;;
9964;SDS011;5023;53.554;9.964;2023-02-01T10:55:50;17.00;;;4.37;;
9964;SDS011;5023;53.554;9.964;2023-02-01T11:00:56;13.77;;;3.73;;
9964;SDS011;5023;53.554;9.964;2023-02-01T11:06:08;17.50;;;4.27;;
9964;SDS011;5023;53.554;9.964;2023-02-01T11:11:14;16.70;;;3.80;;
9964;SDS011;5023;53.554;9.964;2023-02-01T11:16:18;14.50;;;3.40;;
9964;SDS011;5023;53.554;9.964;2023-02-01T11:21:20;17.90;;;4.23;;
9964;SDS011;5023;53.554;9.964;2023-02-01T11:26:24;12.70;;;4.33;;
9964;SDS011;5023;53.554;9.964;2023-02-01T11:31:30;22.00;;;4.77;;
9964;SDS011;5023;53.554;9.964;2023-02-01T11:36:35;13.50;;;4.07;;
9964;SDS011;5023;53.554;9.964;2023-02-01T11:41:41;14.70;;;3.70;;
9964;SDS011;5023;53.554;9.964;2023-02-01T11:46:46;16.00;;;4.13;;
9964;SDS011;5023;53.554;9.964;2023-02-01T11:51:56;21.63;;;6.43;;
9964;SDS011;5023;53.554;9.964;2023-02-01T11:57:13;12.07;;;3.07;;
9964;SDS011;5023;53.554;9.964;2023-02-01T12:02:36;9.93;;;3.00;;
9964;SDS011;5023;53.554;9.964;2023-02-01T12:07:55;11.93;;;3.10;;
9964;SDS011;5023;53.554;9.964;2023-02-01T12:13:18;9.33;;;3.13;;
9964;SDS011;5023;53.554;9.964;2023-02-01T12:18:37;10.43;;;3.40;;
9964;SDS011;5023;53.554;9.964;2023-02-01T12:23:56;15.40;;;5.20;;
9964;SDS011;5023;53.554;9.964;2023-02-01T12:34:49;9.63;;;3.53;;
9964;SDS011;5023;53.554;9.964;2023-02-01T12:40:15;3.93;;;1.87;;
9964;SDS011;5023;53.554;9.964;2023-02-01T12:45:30;4.40;;;1.63;;
9964;SDS011;5023;53.554;9.964;2023-02-01T12:50:39;3.50;;;2.10;;
9964;SDS011;5023;53.554;9.964;2023-02-01T12:55:46;2.23;;;1.30;;
9964;SDS011;5023;53.554;9.964;2023-02-01T13:00:51;5.37;;;1.60;;
9964;SDS011;5023;53.554;9.964;2023-02-01T13:06:12;4.93;;;3.87;;
9964;SDS011;5023;53.554;9.964;2023-02-01T13:11:20;3.43;;;1.40;;
9964;SDS011;5023;53.554;9.964;2023-02-01T13:16:29;4.23;;;2.60;;
9964;SDS011;5023;53.554;9.964;2023-02-01T13:21:36;2.10;;;1.50;;
9964;SDS011;5023;53.554;9.964;2023-02-01T13:26:45;1.07;;;0.80;;
9964;SDS011;5023;53.554;9.964;2023-02-01T13:32:04;2.00;;;1.30;;
9964;SDS011;5023;53.554;9.964;2023-02-01T13:37:39;1.57;;;1.33;;
9964;SDS011;5023;53.554;9.964;2023-02-01T13:42:53;0.87;;;0.87;;
9964;SDS011;5023;53.554;9.964;2023-02-01T13:47:57;7.37;;;5.77;;
9964;SDS011;5023;53.554;9.964;2023-02-01T13:53:11;1.50;;;1.30;;
9964;SDS011;5023;53.554;9.964;2023-02-01T13:58:29;3.77;;;1.20;;
9964;SDS011;5023;53.554;9.964;2023-02-01T14:03:43;3.73;;;1.83;;
9964;SDS011;5023;53.554;9.964;2023-02-01T14:19:50;7.20;;;2.37;;
9964;SDS011;5023;53.554;9.964;2023-02-01T14:26:00;6.67;;;2.23;;
9964;SDS011;5023;53.554;9.964;2023-02-01T14:31:42;7.60;;;2.53;;
9964;SDS011;5023;53.554;9.964;2023-02-01T14:37:03;5.43;;;2.13;;
9964;SDS011;5023;53.554;9.964;2023-02-01T14:42:18;8.13;;;1.47;;
9964;SDS011;5023;53.554;9.964;2023-02-01T14:47:34;4.17;;;2.07;;
9964;SDS011;5023;53.554;9.964;2023-02-01T14:52:59;6.80;;;2.53;;
9964;SDS011;5023;53.554;9.964;2023-02-01T14:58:39;13.97;;;4.00;;
9964;SDS011;5023;53.554;9.964;2023-02-01T15:03:47;12.57;;;4.50;;
9964;SDS011;5023;53.554;9.964;2023-02-01T15:08:55;14.27;;;3.17;;
9964;SDS011;5023;53.554;9.964;2023-02-01T15:14:01;12.37;;;2.97;;
9964;SDS011;5023;53.554;9.964;2023-02-01T15:19:14;15.43;;;3.10;;
9964;SDS011;5023;53.554;9.964;2023-02-01T15:24:20;12.70;;;3.37;;
9964;SDS011;5023;53.554;9.964;2023-02-01T15:29:24;9.97;;;3.07;;
9964;SDS011;5023;53.554;9.964;2023-02-01T15:34:44;7.07;;;2.30;;
9964;SDS011;5023;53.554;9.964;2023-02-01T15:40:03;12.50;;;3.17;;
9964;SDS011;5023;53.554;9.964;2023-02-01T15:45:16;22.27;;;9.10;;
9964;SDS011;5023;53.554;9.964;2023-02-01T15:50:20;10.83;;;4.63;;
9964;SDS011;5023;53.554;9.964;2023-02-01T15:55:24;12.33;;;2.90;;
9964;SDS011;5023;53.554;9.964;2023-02-01T16:00:42;23.43;;;10.13;;
9964;SDS011;5023;53.554;9.964;2023-02-01T16:05:53;12.73;;;3.20;;
9964;SDS011;5023;53.554;9.964;2023-02-01T16:11:00;12.40;;;3.97;;
9964;SDS011;5023;53.554;9.964;2023-02-01T16:16:05;15.93;;;4.57;;
9964;SDS011;5023;53.554;9.964;2023-02-01T16:21:13;16.43;;;4.87;;
9964;SDS011;5023;53.554;9.964;2023-02-01T16:26:19;18.73;;;7.07;;
9964;SDS011;5023;53.554;9.964;2023-02-01T16:31:24;19.60;;;5.40;;
9964;SDS011;5023;53.554;9.964;2023-02-01T16:36:29;15.37;;;4.43;;
9964;SDS011;5023;53.554;9.964;2023-02-01T16:41:31;12.47;;;3.90;;
9964;SDS011;5023;53.554;9.964;2023-02-01T16:46:35;20.67;;;5.97;;
9964;SDS011;5023;53.554;9.964;2023-02-01T16:51:46;19.17;;;6.63;;
9964;SDS011;5023;53.554;9.964;2023-02-01T16:56:50;19.13;;;5.67;;
9964;SDS011;5023;53.554;9.964;2023-02-01T17:01:55;20.40;;;5.80;;
9964;SDS011;5023;53.554;9.964;2023-02-01T17:06:57;22.60;;;6.13;;
9964;SDS011;5023;53.554;9.964;2023-02-01T17:12:06;20.23;;;5.50;;
9964;SDS011;5023;53.554;9.964;2023-02-01T17:17:18;22.13;;;5.03;;
9964;SDS011;5023;53.554;9.964;2023-02-01T17:22:21;22.90;;;7.03;;
9964;SDS011;5023;53.554;9.964;2023-02-01T17:27:23;24.23;;;6.40;;
9964;SDS011;5023;53.554;9.964;2023-02-01T17:32:33;25.00;;;5.37;;
9964;SDS011;5023;53.554;9.964;2023-02-01T17:37:36;26.90;;;6.07;;
9964;SDS011;5023;53.554;9.964;2023-02-01T17:42:38;25.40;;;5.93;;
9964;SDS011;5023;53.554;9.964;2023-02-01T17:47:42;24.47;;;5.83;;
9964;SDS011;5023;53.554;9.964;2023-02-01T17:52:46;16.73;;;5.27;;
9964;SDS011;5023;53.554;9.964;2023-02-01T17:57:49;20.67;;;5.00;;
9964;SDS011;5023;53.554;9.964;2023-02-01T18:02:53;17.53;;;4.80;;
9964;SDS011;5023;53.554;9.964;2023-02-01T18:07:56;21.60;;;5.00;;
9964;SDS011;5023;53.554;9.964;2023-02-01T18:12:59;24.23;;;5.37;;
9964;SDS011;5023;53.554;9.964;2023-02-01T18:18:03;21.30;;;4.10;;
9964;SDS011;5023;53.554;9.964;2023-02-01T18:23:08;20.63;;;5.07;;
9964;SDS011;5023;53.554;9.964;2023-02-01T18:28:16;21.47;;;6.30;;
9964;SDS011;5023;53.554;9.964;2023-02-01T18:33:21;21.03;;;5.40;;
9964;SDS011;5023;53.554;9.964;2023-02-01T18:38:25;21.70;;;5.27;;
9964;SDS011;5023;53.554;9.964;2023-02-01T18:43:29;24.07;;;5.83;;
9964;SDS011;5023;53.554;9.964;2023-02-01T18:48:34;23.87;;;5.20;;
9964;SDS011;5023;53.554;9.964;2023-02-01T18:53:36;20.37;;;5.60;;
9964;SDS011;5023;53.554;9.964;2023-02-01T18:58:39;19.47;;;5.30;;
9964;SDS011;5023;53.554;9.964;2023-02-01T19:03:43;27.70;;;5.37;;
9964;SDS011;5023;53.554;9.964;2023-02-01T19:08:46;25.30;;;5.53;;
9964;SDS011;5023;53.554;9.964;2023-02-01T19:13:50;23.73;;;5.70;;
9964;SDS011;5023;53.554;9.964;2023-02-01T19:18:55;26.63;;;5.80;;
9964;SDS011;5023;53.554;9.964;2023-02-01T19:23:57;20.33;;;5.20;;
9964;SDS011;5023;53.554;9.964;2023-02-01T19:29:00;19.00;;;4.90;;
9964;SDS011;5023;53.554;9.964;2023-02-01T19:34:04;24.00;;;5.47;;
9964;SDS011;5023;53.554;9.964;2023-02-01T19:39:10;16.37;;;4.17;;
9964;SDS011;5023;53.554;9.964;2023-02-01T19:44:12;22.40;;;4.80;;
9964;SDS011;5023;53.554;9.964;2023-02-01T19:49:15;14.07;;;3.47;;
9964;SDS011;5023;53.554;9.964;2023-02-01T19:54:17;12.20;;;3.70;;
9964;SDS011;5023;53.554;9.964;2023-02-01T19:59:23;15.70;;;3.10;;
9964;SDS011;5023;53.554;9.964;2023-02-01T20:04:27;7.27;;;2.57;;
9964;SDS011;5023;53.554;9.964;2023-02-01T20:09:29;11.77;;;4.00;;
9964;SDS011;5023;53.554;9.964;2023-02-01T20:14:32;13.47;;;3.80;;
9964;SDS011;5023;53.554;9.964;2023-02-01T20:19:59;11.33;;;3.53;;
9964;SDS011;5023;53.554;9.964;2023-02-01T20:25:02;25.17;;;5.63;;
9964;SDS011;5023;53.554;9.964;2023-02-01T20:30:05;15.37;;;4.50;;
9964;SDS011;5023;53.554;9.964;2023-02-01T20:35:15;20.07;;;5.03;;
9964;SDS011;5023;53.554;9.964;2023-02-01T20:40:17;15.50;;;4.13;;
9964;SDS011;5023;53.554;9.964;2023-02-01T20:45:21;23.83;;;5.73;;
9964;SDS011;5023;53.554;9.964;2023-02-01T20:50:24;15.40;;;4.73;;
9964;SDS011;5023;53.554;9.964;2023-02-01T20:55:27;17.07;;;4.50;;
9964;SDS011;5023;53.554;9.964;2023-02-01T21:00:30;25.23;;;4.47;;
9964;SDS011;5023;53.554;9.964;2023-02-01T21:05:35;16.77;;;5.10;;
9964;SDS011;5023;53.554;9.964;2023-02-01T21:10:41;18.83;;;4.87;;
9964;SDS011;5023;53.554;9.964;2023-02-01T21:15:45;21.00;;;4.80;;
9964;SDS011;5023;53.554;9.964;2023-02-01T21:20:48;22.73;;;4.23;;
9964;SDS011;5023;53.554;9.964;2023-02-01T21:25:52;22.37;;;5.20;;
9964;SDS011;5023;53.554;9.964;2023-02-01T21:30:55;24.07;;;4.90;;
9964;SDS011;5023;53.554;9.964;2023-02-01T21:36:00;18.73;;;4.10;;
9964;SDS011;5023;53.554;9.964;2023-02-01T21:41:02;21.87;;;5.43;;
9964;SDS011;5023;53.554;9.964;2023-02-01T21:46:22;17.03;;;5.00;;
9964;SDS011;5023;53.554;9.964;2023-02-01T21:51:28;20.27;;;5.27;;
9964;SDS011;5023;53.554;9.964;2023-02-01T21:56:31;21.00;;;5.00;;
9964;SDS011;5023;53.554;9.964;2023-02-01T22:01:33;23.47;;;5.20;;
9964;SDS011;5023;53.554;9.964;2023-02-01T22:06:38;17.80;;;5.10;;
9964;SDS011;5023;53.554;9.964;2023-02-01T22:11:41;21.00;;;4.80;;
9964;SDS011;5023;53.554;9.964;2023-02-01T22:16:43;19.83;;;4.60;;
9964;SDS011;5023;53.554;9.964;2023-02-01T22:21:47;17.30;;;4.00;;
9964;SDS011;5023;53.554;9.964;2023-02-01T22:26:49;19.97;;;4.70;;
9964;SDS011;5023;53.554;9.964;2023-02-01T22:31:52;20.73;;;4.67;;
9964;SDS011;5023;53.554;9.964;2023-02-01T22:36:55;16.10;;;4.43;;
9964;SDS011;5023;53.554;9.964;2023-02-01T22:41:57;25.83;;;6.17;;
9964;SDS011;5023;53.554;9.964;2023-02-01T22:46:59;26.23;;;6.53;;
9964;SDS011;5023;53.554;9.964;2023-02-01T22:52:03;25.77;;;5.33;;
9964;SDS011;5023;53.554;9.964;2023-02-01T22:57:05;23.07;;;5.07;;
9964;SDS011;5023;53.554;9.964;2023-02-01T23:02:07;20.47;;;5.17;;
9964;SDS011;5023;53.554;9.964;2023-02-01T23:07:11;23.73;;;4.93;;
9964;SDS011;5023;53.554;9.964;2023-02-01T23:12:13;23.07;;;4.77;;
9964;SDS011;5023;53.554;9.964;2023-02-01T23:17:15;16.90;;;3.83;;
9964;SDS011;5023;53.554;9.964;2023-02-01T23:22:18;27.27;;;5.33;;
9964;SDS011;5023;53.554;9.964;2023-02-01T23:27:20;23.73;;;4.60;;
9964;SDS011;5023;53.554;9.964;2023-02-01T23:32:23;20.70;;;5.17;;
9964;SDS011;5023;53.554;9.964;2023-02-01T23:37:26;19.63;;;4.57;;
9964;SDS011;5023;53.554;9.964;2023-02-01T23:42:29;15.40;;;4.73;;
9964;SDS011;5023;53.554;9.964;2023-02-01T23:47:31;19.57;;;4.37;;
9964;SDS011;5023;53.554;9.964;2023-02-01T23:52:35;20.50;;;4.53;;
9964;SDS011;5023;53.554;9.964;2023-02-01T23:57:37;20.57;;;4.40;;
